Supadio Airport
WIOO : now visible

Airfield :











YOU CAN JOIN US ON...

 
LOGIN :

Register | Disclaimer

   EN    FR    IT 

 









Legend :    VFR   Marginal VFR   IFR   Intensive IFR   Very Intensive IFR
Visi :
Ceiling :
>= 8 km
>= 3000ft
5 to 8 km
1000 to 3000 ft
1500m to 5 km
500 to 1000 ft
800 to 1500m
200 to 500 ft
< 800m
< 200 ft
Symbols :   Thunderstorms  Fog  Heavy snow  Heavy precipitations  Wind > 20 kt






- Airport Elevation : 10 ft
- IATA code : PNK


WIOO - Supadio

CURRENT METAR :
  • 222230Z 00000KT 6000 BKN012 25/25 Q1010 NOSIG

EXPIRED METARs :
  • 222200Z 04003KT 6000 FEW012 25/25 Q1010 NOSIG
  • 222130Z AUTO 04002KT 6000 FEW019 25/25 Q1010
  • 222100Z AUTO VRB02KT 6000 NCD 25/25 Q1010
  • 222030Z AUTO 04002KT 4700 BR NCD 25/25 Q1009
  • 222000Z AUTO 05002KT 7000 NCD 25/25 Q1009

Expired Forecast.
WIIF FIR / Asia



MET'MAP, your aeronautical weather chart ! - Copyright ORBIFLY December 2007 - Disclaimer

ORBIFLY MET'MAP TEAM :

Programming & Development : Alexandra Zaïnal
Concept & original design : Baudouin d'Aumeries
Assistance for programming : Marc-Olivier Méhu
Technical & hardware support : Manuel Goepfert

Contact : metmap@orbifly.com




SOURCES & CREDITS :

   NOAA       Earth
Advisory